createdAt,value
2022-09-14T00:01:57.474Z,14.90
2022-09-14T00:06:09.972Z,14.90
2022-09-14T00:10:17.770Z,14.80
2022-09-14T00:14:25.793Z,14.80
2022-09-14T00:18:34.740Z,14.70
2022-09-14T00:22:42.617Z,14.80
2022-09-14T00:26:49.540Z,14.80
2022-09-14T00:30:53.460Z,14.80
2022-09-14T00:35:00.095Z,14.80
2022-09-14T00:39:08.129Z,14.70
2022-09-14T00:43:17.261Z,14.70
2022-09-14T00:47:22.784Z,14.70
2022-09-14T00:51:30.237Z,14.70
2022-09-14T00:55:39.298Z,14.60
2022-09-14T00:59:47.127Z,14.70
2022-09-14T01:03:52.215Z,14.70
2022-09-14T01:08:12.768Z,14.70
2022-09-14T01:12:32.697Z,14.70
2022-09-14T01:16:47.308Z,14.60
2022-09-14T01:20:58.270Z,14.60
2022-09-14T01:25:15.583Z,14.60
2022-09-14T01:29:25.923Z,14.70
2022-09-14T01:33:35.576Z,14.70
2022-09-14T01:37:47.052Z,14.70
2022-09-14T01:41:54.651Z,14.70
2022-09-14T01:46:10.791Z,14.80
2022-09-14T01:50:21.997Z,14.80
2022-09-14T01:54:31.233Z,14.80
2022-09-14T01:58:39.402Z,14.80
2022-09-14T02:02:50.437Z,14.70
2022-09-14T02:06:54.587Z,14.80
2022-09-14T02:10:59.769Z,14.80
2022-09-14T02:15:05.248Z,14.80
2022-09-14T02:19:12.480Z,14.80
2022-09-14T02:23:19.911Z,14.70
2022-09-14T02:27:25.089Z,14.70
2022-09-14T02:31:38.847Z,14.80
2022-09-14T02:35:50.486Z,14.80
2022-09-14T02:40:03.957Z,14.80
2022-09-14T02:44:17.858Z,14.70
2022-09-14T02:48:32.039Z,14.80
2022-09-14T02:52:49.062Z,14.70
2022-09-14T02:56:55.662Z,14.80
2022-09-14T03:01:00.456Z,14.80
2022-09-14T03:05:04.926Z,14.80
2022-09-14T03:09:11.485Z,14.70
2022-09-14T03:13:14.790Z,14.80
2022-09-14T03:17:18.113Z,14.80
2022-09-14T03:21:21.396Z,14.80
2022-09-14T03:25:26.415Z,14.80
2022-09-14T03:29:30.059Z,14.70
2022-09-14T03:33:33.307Z,14.70
2022-09-14T03:37:38.679Z,14.80
2022-09-14T03:41:43.210Z,14.80
2022-09-14T03:45:46.876Z,14.70
2022-09-14T03:49:50.901Z,14.80
2022-09-14T03:53:54.631Z,14.70
2022-09-14T03:57:59.330Z,14.70
2022-09-14T04:02:02.886Z,14.60
2022-09-14T04:06:07.266Z,14.70
2022-09-14T04:10:11.619Z,14.70
2022-09-14T04:14:16.466Z,14.70
2022-09-14T04:18:19.676Z,14.60
2022-09-14T04:22:22.889Z,14.60
2022-09-14T04:26:28.227Z,14.60
2022-09-14T04:30:34.467Z,14.60
2022-09-14T04:34:37.767Z,14.60
2022-09-14T04:38:42.321Z,14.60
2022-09-14T04:42:45.466Z,14.50
2022-09-14T04:46:50.318Z,14.40
2022-09-14T04:50:53.399Z,14.40
2022-09-14T04:54:58.305Z,14.40
2022-09-14T04:59:04.362Z,14.40
2022-09-14T05:03:09.158Z,14.30
2022-09-14T05:07:12.344Z,14.40
2022-09-14T05:11:17.469Z,14.50
2022-09-14T05:15:20.758Z,14.70
2022-09-14T05:19:27.249Z,14.80
2022-09-14T05:23:30.957Z,15.00
2022-09-14T05:27:34.430Z,15.10
2022-09-14T05:31:40.555Z,15.20
2022-09-14T05:35:49.255Z,15.30
2022-09-14T05:39:53.684Z,15.40
2022-09-14T05:43:56.968Z,15.50
2022-09-14T05:48:04.791Z,15.60
2022-09-14T05:52:09.278Z,15.70
2022-09-14T05:56:14.332Z,15.90
2022-09-14T06:00:18.106Z,16.10
2022-09-14T06:04:24.743Z,16.40
2022-09-14T06:08:34.110Z,16.50
2022-09-14T06:12:40.382Z,16.90
2022-09-14T06:16:47.073Z,17.20
2022-09-14T06:20:53.343Z,17.20
2022-09-14T06:24:57.980Z,17.60
2022-09-14T06:29:28.966Z,17.50
2022-09-14T06:33:35.028Z,17.70
2022-09-14T06:37:42.431Z,17.80
2022-09-14T06:41:47.372Z,18.00
2022-09-14T06:45:58.264Z,18.10
2022-09-14T06:50:01.950Z,18.40
2022-09-14T06:54:06.696Z,18.60
2022-09-14T06:58:12.488Z,18.60
2022-09-14T07:02:16.054Z,18.50
2022-09-14T07:11:42.405Z,19.00
2022-09-14T07:16:13.502Z,19.50
2022-09-14T07:20:17.049Z,20.10
2022-09-14T07:24:20.340Z,20.70
2022-09-14T07:28:24.549Z,20.80
2022-09-14T07:32:29.059Z,21.00
2022-09-14T07:36:35.091Z,20.70
2022-09-14T07:40:41.055Z,20.80
2022-09-14T07:44:45.511Z,21.00
2022-09-14T07:48:57.092Z,21.80
2022-09-14T07:53:02.866Z,22.30
2022-09-14T07:57:07.530Z,22.60
2022-09-14T08:01:14.342Z,22.90
2022-09-14T08:05:21.429Z,23.20
2022-09-14T08:09:25.873Z,23.60
2022-09-14T08:13:29.092Z,23.70
2022-09-14T08:17:32.201Z,23.60
2022-09-14T08:21:37.201Z,23.90
2022-09-14T08:25:40.346Z,24.20
2022-09-14T08:29:43.563Z,24.20
2022-09-14T08:33:48.538Z,24.40
2022-09-14T08:37:53.722Z,25.30
2022-09-14T08:42:00.211Z,25.30
2022-09-14T08:46:08.251Z,25.20
2022-09-14T08:50:17.776Z,24.80
2022-09-14T08:54:22.471Z,24.30
2022-09-14T08:58:42.660Z,24.20
2022-09-14T09:03:22.472Z,23.90
2022-09-14T09:07:33.672Z,24.80
2022-09-14T09:11:42.101Z,27.10
2022-09-14T09:15:49.382Z,29.00
2022-09-14T09:20:05.448Z,29.90
2022-09-14T09:24:17.087Z,29.40
2022-09-14T09:28:23.107Z,29.10
2022-09-14T09:32:27.553Z,29.90
2022-09-14T09:36:35.859Z,29.60
2022-09-14T09:40:45.037Z,29.10
2022-09-14T09:45:07.591Z,28.50
2022-09-14T09:49:20.142Z,28.30
2022-09-14T09:53:25.123Z,28.10
2022-09-14T09:57:33.982Z,28.00
2022-09-14T10:01:38.614Z,28.30
2022-09-14T10:05:41.982Z,28.50
2022-09-14T10:09:45.222Z,29.10
2022-09-14T10:13:48.761Z,30.10
2022-09-14T10:18:07.716Z,31.30
2022-09-14T10:22:27.087Z,31.10
2022-09-14T10:26:35.074Z,32.30
2022-09-14T10:30:43.797Z,32.80
2022-09-14T10:34:48.440Z,32.50
2022-09-14T10:38:55.208Z,33.60
2022-09-14T10:43:10.977Z,33.90
2022-09-14T10:47:26.918Z,34.50
2022-09-14T10:51:41.942Z,34.20
2022-09-14T10:55:53.348Z,33.90
2022-09-14T11:00:00.848Z,32.80
2022-09-14T11:04:24.972Z,33.30
2022-09-14T11:08:34.077Z,33.50
2022-09-14T11:12:47.535Z,34.10
2022-09-14T11:17:15.455Z,35.10
2022-09-14T11:21:26.540Z,35.50
2022-09-14T11:25:38.717Z,36.20
2022-09-14T11:29:47.917Z,36.10
2022-09-14T11:33:57.092Z,36.40
2022-09-14T11:38:03.232Z,37.70
2022-09-14T11:42:11.896Z,37.20
2022-09-14T11:46:19.106Z,38.50
2022-09-14T11:50:26.568Z,39.70
2022-09-14T11:54:30.021Z,40.30
2022-09-14T11:58:34.770Z,38.80
2022-09-14T12:03:00.864Z,39.70
2022-09-14T12:07:04.078Z,40.70
2022-09-14T12:11:32.362Z,39.70
2022-09-14T12:15:38.178Z,38.50
2022-09-14T12:19:41.708Z,38.20
2022-09-14T12:23:51.845Z,38.50
2022-09-14T12:27:55.118Z,38.50
2022-09-14T12:32:25.541Z,38.60
2022-09-14T12:36:59.201Z,38.10
2022-09-14T12:41:24.582Z,39.00
2022-09-14T12:45:51.097Z,39.70
2022-09-14T12:49:57.846Z,39.60
2022-09-14T12:54:08.244Z,40.10
2022-09-14T12:58:23.036Z,39.50
2022-09-14T13:02:52.529Z,38.50
2022-09-14T13:06:59.856Z,38.00
2022-09-14T13:11:03.002Z,37.10
2022-09-14T13:15:08.774Z,36.80
2022-09-14T13:19:23.232Z,36.10
2022-09-14T13:23:30.269Z,34.10
2022-09-14T13:27:35.550Z,34.60
2022-09-14T13:31:40.694Z,36.60
2022-09-14T13:35:48.768Z,37.70
2022-09-14T13:39:56.002Z,38.50
2022-09-14T13:43:59.831Z,38.10
2022-09-14T13:48:03.550Z,39.40
2022-09-14T13:52:50.217Z,40.80
2022-09-14T13:57:16.958Z,40.80
2022-09-14T14:01:29.417Z,41.90
2022-09-14T14:05:34.318Z,41.10
2022-09-14T14:09:43.797Z,40.60
2022-09-14T14:13:48.454Z,40.60
2022-09-14T14:17:52.236Z,41.70
2022-09-14T14:22:13.456Z,41.80
2022-09-14T14:26:21.086Z,41.10
2022-09-14T14:30:27.021Z,40.10
2022-09-14T14:34:31.058Z,39.80
2022-09-14T14:38:34.339Z,39.90
2022-09-14T14:42:37.976Z,39.80
2022-09-14T14:46:44.294Z,36.60
2022-09-14T14:50:47.476Z,34.20
2022-09-14T14:54:50.861Z,32.90
2022-09-14T14:58:53.997Z,32.00
2022-09-14T15:02:58.855Z,31.50
2022-09-14T15:07:02.096Z,31.00
2022-09-14T15:11:05.318Z,30.40
2022-09-14T15:15:14.256Z,30.00
2022-09-14T15:19:19.409Z,29.70
2022-09-14T15:23:22.603Z,29.30
2022-09-14T15:27:25.882Z,28.70
2022-09-14T15:31:29.541Z,28.50
2022-09-14T15:35:35.137Z,28.30
2022-09-14T15:39:38.416Z,27.80
2022-09-14T15:43:41.571Z,27.40
2022-09-14T15:47:47.034Z,27.20
2022-09-14T15:51:53.505Z,26.90
2022-09-14T15:55:58.792Z,26.70
2022-09-14T16:00:02.093Z,26.50
2022-09-14T16:04:11.552Z,26.20
2022-09-14T16:08:16.419Z,26.20
2022-09-14T16:12:19.741Z,26.00
2022-09-14T16:16:23.108Z,26.00
2022-09-14T16:20:26.490Z,25.70
2022-09-14T16:24:32.797Z,25.40
2022-09-14T16:28:35.963Z,25.00
2022-09-14T16:32:39.165Z,24.60
2022-09-14T16:36:43.300Z,24.30
2022-09-14T16:40:48.041Z,24.00
2022-09-14T16:44:51.198Z,23.60
2022-09-14T16:48:54.915Z,23.30
2022-09-14T16:52:58.304Z,23.10
2022-09-14T16:57:04.719Z,23.00
2022-09-14T17:01:10.586Z,22.90
2022-09-14T17:05:14.137Z,22.90
2022-09-14T17:09:20.505Z,22.80
2022-09-14T17:13:26.391Z,22.70
2022-09-14T17:17:30.743Z,22.40
2022-09-14T17:21:38.588Z,22.10
2022-09-14T17:25:58.799Z,21.90
2022-09-14T17:30:08.272Z,21.70
2022-09-14T17:34:13.472Z,21.40
2022-09-14T17:38:17.125Z,21.20
2022-09-14T17:42:20.779Z,21.00
2022-09-14T17:46:26.486Z,20.90
2022-09-14T17:50:30.122Z,20.70
2022-09-14T17:54:33.814Z,20.60
2022-09-14T17:58:38.188Z,20.40
2022-09-14T18:02:43.347Z,20.20
2022-09-14T18:06:48.664Z,20.10
2022-09-14T18:10:52.178Z,20.00
2022-09-14T18:14:55.736Z,19.90
2022-09-14T18:19:01.195Z,19.80
2022-09-14T18:23:05.260Z,19.80
2022-09-14T18:27:09.034Z,19.70
2022-09-14T18:31:14.514Z,19.60
2022-09-14T18:35:19.546Z,19.50
2022-09-14T18:39:23.273Z,19.40
2022-09-14T18:43:27.041Z,19.30
2022-09-14T18:47:30.682Z,19.20
2022-09-14T18:51:35.338Z,19.10
2022-09-14T18:55:38.882Z,19.10
2022-09-14T18:59:42.894Z,19.00
2022-09-14T19:03:46.442Z,18.90
2022-09-14T19:07:51.802Z,18.90
2022-09-14T19:11:55.473Z,18.90
2022-09-14T19:15:58.897Z,18.90
2022-09-14T19:20:03.779Z,18.90
2022-09-14T19:24:14.701Z,18.90
2022-09-14T19:28:18.977Z,19.00
2022-09-14T19:32:22.636Z,19.10
2022-09-14T19:36:27.774Z,19.10
2022-09-14T19:40:32.839Z,19.20
2022-09-14T19:44:36.572Z,19.20
2022-09-14T19:48:40.923Z,19.20
2022-09-14T19:52:45.569Z,19.20
2022-09-14T19:56:50.671Z,19.00
2022-09-14T20:00:55.590Z,19.00
2022-09-14T20:04:59.043Z,18.90
2022-09-14T20:09:11.841Z,18.80
2022-09-14T20:19:12.423Z,18.70
2022-09-14T20:23:16.417Z,18.60
2022-09-14T20:27:19.781Z,18.50
2022-09-14T20:31:24.695Z,18.40
2022-09-14T20:35:28.078Z,18.30
2022-09-14T20:39:31.685Z,18.20
2022-09-14T20:43:36.772Z,18.20
2022-09-14T20:47:44.087Z,18.20
2022-09-14T20:51:47.455Z,18.10
2022-09-14T20:55:54.483Z,18.20
2022-09-14T20:59:58.220Z,18.20
2022-09-14T21:04:07.174Z,18.30
2022-09-14T21:08:10.378Z,18.40
2022-09-14T21:12:15.208Z,18.50
2022-09-14T21:16:20.667Z,18.50
2022-09-14T21:20:26.479Z,18.50
2022-09-14T21:24:31.155Z,18.40
2022-09-14T21:28:35.384Z,18.40
2022-09-14T21:32:38.553Z,18.30
2022-09-14T21:36:45.329Z,18.30
2022-09-14T21:40:48.606Z,18.30
2022-09-14T21:44:51.933Z,18.20
2022-09-14T21:48:56.986Z,18.10
2022-09-14T21:53:01.573Z,18.00
2022-09-14T21:57:05.199Z,17.90
2022-09-14T22:01:12.162Z,17.90
2022-09-14T22:05:15.525Z,17.90
2022-09-14T22:09:21.909Z,17.90
2022-09-14T22:13:25.245Z,18.00
2022-09-14T22:17:29.121Z,18.10
2022-09-14T22:21:36.563Z,18.20
2022-09-14T22:25:45.009Z,18.30
2022-09-14T22:29:48.197Z,18.30
2022-09-14T22:33:55.083Z,18.40
2022-09-14T22:37:58.703Z,18.40
2022-09-14T22:42:03.352Z,18.40
2022-09-14T22:46:09.329Z,18.40
2022-09-14T22:50:12.610Z,18.50
2022-09-14T22:54:16.036Z,18.50
2022-09-14T22:58:22.651Z,18.60
2022-09-14T23:02:26.095Z,18.50
2022-09-14T23:06:30.485Z,18.50
2022-09-14T23:10:38.483Z,18.50
2022-09-14T23:14:43.074Z,18.50
2022-09-14T23:18:50.998Z,18.40
2022-09-14T23:22:54.229Z,18.10
2022-09-14T23:26:57.848Z,18.00
2022-09-14T23:31:02.748Z,17.90
2022-09-14T23:35:07.739Z,17.90
2022-09-14T23:39:11.574Z,17.90
2022-09-14T23:43:14.774Z,17.70
2022-09-14T23:47:19.524Z,17.80
2022-09-14T23:51:23.044Z,17.80
2022-09-14T23:55:26.428Z,17.70
2022-09-14T23:59:29.631Z,17.70
